createdAt,value
2017-10-05T00:00:16.602Z,9.30
2017-10-05T00:02:44.212Z,9.30
2017-10-05T00:05:11.808Z,9.20
2017-10-05T00:07:39.386Z,9.20
2017-10-05T00:10:07.323Z,9.20
2017-10-05T00:12:34.906Z,9.20
2017-10-05T00:15:02.492Z,9.10
2017-10-05T00:17:30.078Z,9.10
2017-10-05T00:19:57.732Z,9.10
2017-10-05T00:22:25.782Z,9.10
2017-10-05T00:24:53.358Z,9.10
2017-10-05T00:27:20.950Z,9.10
2017-10-05T00:29:48.554Z,9.00
2017-10-05T00:32:16.150Z,9.10
2017-10-05T00:34:44.513Z,9.10
2017-10-05T00:37:12.127Z,9.10
2017-10-05T00:39:40.031Z,9.20
2017-10-05T00:42:07.595Z,9.20
2017-10-05T00:44:35.185Z,9.20
2017-10-05T00:47:03.561Z,9.20
2017-10-05T00:49:32.005Z,9.30
2017-10-05T00:51:59.658Z,9.20
2017-10-05T00:54:27.246Z,9.30
2017-10-05T00:56:55.091Z,9.30
2017-10-05T00:59:22.641Z,9.30
2017-10-05T01:01:50.211Z,9.30
2017-10-05T01:04:17.834Z,9.30
2017-10-05T01:06:45.686Z,9.30
2017-10-05T01:09:13.305Z,9.20
2017-10-05T01:11:40.895Z,9.20
2017-10-05T01:14:09.634Z,9.20
2017-10-05T01:16:37.247Z,9.20
2017-10-05T01:19:04.811Z,9.10
2017-10-05T01:21:32.381Z,9.10
2017-10-05T01:23:59.978Z,9.10
2017-10-05T01:26:27.604Z,9.00
2017-10-05T01:28:55.262Z,9.00
2017-10-05T01:31:23.955Z,9.00
2017-10-05T01:33:52.198Z,9.00
2017-10-05T01:36:20.536Z,8.90
2017-10-05T01:38:48.136Z,8.90
2017-10-05T01:41:16.483Z,8.90
2017-10-05T01:43:44.223Z,8.90
2017-10-05T01:46:11.802Z,9.00
2017-10-05T01:48:39.398Z,9.00
2017-10-05T01:51:07.756Z,9.20
2017-10-05T01:53:35.378Z,9.20
2017-10-05T01:56:02.971Z,9.30
2017-10-05T01:58:30.538Z,9.30
2017-10-05T02:00:58.175Z,9.40
2017-10-05T02:03:25.802Z,9.30
2017-10-05T02:05:53.660Z,9.40
2017-10-05T02:08:21.239Z,9.40
2017-10-05T02:10:48.903Z,9.40
2017-10-05T02:13:16.512Z,9.30
2017-10-05T02:15:44.856Z,9.30
2017-10-05T02:18:12.495Z,9.30
2017-10-05T02:20:40.116Z,9.30
2017-10-05T02:23:08.843Z,9.30
2017-10-05T02:25:36.461Z,9.20
2017-10-05T02:28:04.810Z,9.30
2017-10-05T02:30:32.409Z,9.30
2017-10-05T02:33:00.750Z,9.20
2017-10-05T02:35:28.342Z,9.30
2017-10-05T02:37:55.928Z,9.20
2017-10-05T02:40:23.831Z,9.20
2017-10-05T02:42:51.505Z,9.20
2017-10-05T02:45:19.119Z,9.20
2017-10-05T02:47:47.447Z,9.10
2017-10-05T02:50:15.017Z,9.10
2017-10-05T02:52:43.471Z,9.00
2017-10-05T02:55:11.052Z,9.00
2017-10-05T02:57:38.911Z,9.00
2017-10-05T03:00:06.538Z,9.00
2017-10-05T03:02:34.117Z,9.00
2017-10-05T03:05:01.722Z,9.00
2017-10-05T03:07:29.286Z,9.00
2017-10-05T03:09:56.907Z,9.00
2017-10-05T03:12:24.491Z,9.00
2017-10-05T03:14:53.106Z,9.00
2017-10-05T03:17:20.678Z,8.90
2017-10-05T03:19:48.317Z,8.90
2017-10-05T03:22:15.914Z,8.90
2017-10-05T03:24:43.491Z,8.90
2017-10-05T03:27:11.087Z,8.80
2017-10-05T03:29:38.721Z,8.80
2017-10-05T03:32:06.575Z,8.80
2017-10-05T03:34:34.151Z,8.80
2017-10-05T03:37:02.493Z,8.80
2017-10-05T03:39:30.201Z,8.80
2017-10-05T03:41:58.531Z,8.90
2017-10-05T03:44:26.121Z,8.80
2017-10-05T03:46:53.696Z,8.90
2017-10-05T03:49:22.335Z,8.80
2017-10-05T03:51:49.894Z,8.80
2017-10-05T03:54:17.456Z,8.80
2017-10-05T03:56:45.055Z,8.80
2017-10-05T03:59:13.414Z,8.70
2017-10-05T04:01:41.029Z,8.70
2017-10-05T04:04:08.595Z,8.70
2017-10-05T04:06:36.462Z,8.60
2017-10-05T04:09:04.097Z,8.60
2017-10-05T04:11:31.670Z,8.60
2017-10-05T04:13:59.271Z,8.60
2017-10-05T04:16:26.936Z,8.60
2017-10-05T04:18:54.569Z,8.60
2017-10-05T04:21:22.155Z,8.60
2017-10-05T04:23:50.834Z,8.60
2017-10-05T04:26:18.434Z,8.60
2017-10-05T04:28:46.774Z,8.50
2017-10-05T04:31:14.375Z,8.50
2017-10-05T04:33:42.725Z,8.50
2017-10-05T04:36:10.349Z,8.50
2017-10-05T04:38:37.925Z,8.50
2017-10-05T04:41:05.893Z,8.60
2017-10-05T04:43:33.487Z,8.60
2017-10-05T04:46:01.127Z,8.60
2017-10-05T04:48:29.542Z,8.70
2017-10-05T04:50:57.133Z,8.70
2017-10-05T04:53:24.743Z,8.80
2017-10-05T04:55:53.110Z,8.80
2017-10-05T04:58:20.726Z,8.80
2017-10-05T05:00:48.333Z,8.80
2017-10-05T05:03:15.955Z,8.80
2017-10-05T05:05:43.845Z,8.90
2017-10-05T05:08:11.529Z,8.90
2017-10-05T05:10:39.122Z,9.00
2017-10-05T05:13:06.728Z,9.00
2017-10-05T05:15:34.670Z,9.00
2017-10-05T05:18:02.274Z,9.10
2017-10-05T05:20:31.361Z,9.10
2017-10-05T05:22:59.320Z,9.10
2017-10-05T05:25:26.907Z,9.00
2017-10-05T05:27:55.274Z,9.00
2017-10-05T05:30:22.903Z,9.00
2017-10-05T05:32:50.485Z,9.00
2017-10-05T05:35:18.134Z,8.90
2017-10-05T05:37:45.722Z,8.90
2017-10-05T05:40:13.652Z,9.00
2017-10-05T05:42:41.243Z,9.00
2017-10-05T05:45:08.866Z,9.00
2017-10-05T05:47:36.607Z,9.00
2017-10-05T05:50:04.222Z,9.00
2017-10-05T05:52:31.838Z,9.00
2017-10-05T05:54:59.408Z,9.10
2017-10-05T05:57:27.266Z,9.20
2017-10-05T05:59:54.843Z,9.20
2017-10-05T06:02:22.439Z,9.30
2017-10-05T06:04:50.839Z,9.40
2017-10-05T06:07:18.430Z,9.40
2017-10-05T06:09:46.038Z,9.50
2017-10-05T06:12:14.432Z,9.60
2017-10-05T06:14:43.076Z,9.70
2017-10-05T06:17:10.670Z,9.60
2017-10-05T06:19:39.384Z,9.70
2017-10-05T06:22:06.974Z,9.70
2017-10-05T06:24:34.582Z,9.80
2017-10-05T06:27:02.926Z,9.90
2017-10-05T06:29:31.372Z,9.90
2017-10-05T06:31:58.979Z,9.90
2017-10-05T06:34:26.598Z,10.20
2017-10-05T06:36:54.295Z,11.70
2017-10-05T06:39:22.099Z,13.40
2017-10-05T06:41:49.725Z,15.10
2017-10-05T06:44:17.769Z,16.20
2017-10-05T06:46:45.370Z,17.00
2017-10-05T06:49:13.772Z,18.50
2017-10-05T06:51:41.402Z,18.50
2017-10-05T06:54:09.749Z,19.40
2017-10-05T06:56:37.453Z,19.40
2017-10-05T06:59:05.841Z,20.70
2017-10-05T07:01:33.434Z,20.70
2017-10-05T07:04:01.004Z,21.50
2017-10-05T07:06:28.891Z,22.40
2017-10-05T07:08:56.466Z,22.90
2017-10-05T07:11:24.819Z,23.50
2017-10-05T07:13:52.438Z,23.50
2017-10-05T07:16:20.047Z,24.20
2017-10-05T07:18:47.789Z,23.90
2017-10-05T07:21:15.399Z,23.40
2017-10-05T07:23:44.078Z,22.10
2017-10-05T07:26:11.690Z,22.00
2017-10-05T07:28:39.312Z,21.40
2017-10-05T07:31:06.929Z,22.20
2017-10-05T07:33:34.532Z,23.40
2017-10-05T07:36:02.166Z,23.70
2017-10-05T07:38:29.753Z,23.40
2017-10-05T07:40:57.667Z,22.80
2017-10-05T07:43:25.297Z,21.00
2017-10-05T07:45:52.894Z,22.30
2017-10-05T07:48:20.523Z,24.40
2017-10-05T07:50:48.099Z,26.00
2017-10-05T07:53:15.796Z,27.40
2017-10-05T07:55:43.398Z,27.90
2017-10-05T07:58:11.390Z,27.90
2017-10-05T08:00:38.979Z,28.20
2017-10-05T08:03:06.599Z,28.80
2017-10-05T08:05:34.193Z,27.80
2017-10-05T08:08:01.771Z,28.10
2017-10-05T08:10:30.708Z,27.40
2017-10-05T08:12:58.370Z,27.30
2017-10-05T08:15:27.150Z,27.60
2017-10-05T08:17:54.727Z,27.60
2017-10-05T08:20:22.306Z,28.00
2017-10-05T08:22:49.894Z,28.00
2017-10-05T08:25:18.305Z,28.50
2017-10-05T08:27:45.915Z,28.50
2017-10-05T08:30:13.502Z,28.70
2017-10-05T08:32:42.247Z,29.60
2017-10-05T08:35:09.836Z,29.60
2017-10-05T08:37:38.180Z,27.60
2017-10-05T08:40:05.884Z,27.60
2017-10-05T08:42:34.231Z,26.50
2017-10-05T08:45:01.859Z,26.50
2017-10-05T08:47:29.469Z,24.70
2017-10-05T08:49:58.121Z,22.20
2017-10-05T08:52:25.698Z,22.10
2017-10-05T08:54:53.395Z,22.10
2017-10-05T08:57:21.794Z,23.10
2017-10-05T08:59:49.398Z,23.00
2017-10-05T09:02:17.734Z,24.30
2017-10-05T09:04:45.336Z,25.50
2017-10-05T09:07:13.235Z,24.70
2017-10-05T09:09:40.822Z,24.40
2017-10-05T09:12:08.405Z,25.40
2017-10-05T09:14:36.170Z,25.60
2017-10-05T09:17:03.775Z,25.80
2017-10-05T09:19:32.163Z,26.40
2017-10-05T09:21:59.752Z,26.40
2017-10-05T09:24:27.645Z,26.00
2017-10-05T09:26:55.221Z,25.10
2017-10-05T09:29:22.858Z,25.80
2017-10-05T09:31:50.612Z,26.60
2017-10-05T09:34:18.214Z,27.20
2017-10-05T09:36:46.579Z,30.70
2017-10-05T09:39:14.201Z,30.60
2017-10-05T09:41:42.088Z,30.30
2017-10-05T09:44:09.707Z,27.70
2017-10-05T09:46:37.300Z,26.20
2017-10-05T09:49:05.092Z,24.70
2017-10-05T09:51:32.667Z,26.00
2017-10-05T09:54:01.286Z,26.20
2017-10-05T09:56:28.874Z,26.10
2017-10-05T09:58:57.314Z,25.10
2017-10-05T10:01:25.772Z,23.30
2017-10-05T10:03:54.172Z,23.20
2017-10-05T10:06:22.058Z,23.10
2017-10-05T10:08:50.397Z,22.60
2017-10-05T10:11:18.793Z,22.00
2017-10-05T10:13:46.492Z,21.90
2017-10-05T10:16:14.062Z,21.20
2017-10-05T10:18:41.662Z,20.50
2017-10-05T10:21:09.258Z,20.10
2017-10-05T10:23:37.131Z,19.80
2017-10-05T10:26:04.747Z,19.50
2017-10-05T10:28:33.091Z,20.70
2017-10-05T10:31:00.702Z,20.70
2017-10-05T10:33:28.454Z,20.80
2017-10-05T10:35:56.131Z,20.10
2017-10-05T10:38:23.722Z,19.60
2017-10-05T10:40:51.709Z,19.00
2017-10-05T10:43:19.429Z,18.70
2017-10-05T10:45:47.047Z,18.40
2017-10-05T10:48:15.435Z,17.90
2017-10-05T10:50:43.785Z,17.70
2017-10-05T10:53:11.492Z,17.70
2017-10-05T10:55:39.071Z,17.60
2017-10-05T10:58:06.939Z,17.50
2017-10-05T11:00:34.524Z,17.40
2017-10-05T11:03:02.159Z,17.40
2017-10-05T11:05:29.780Z,17.30
2017-10-05T11:07:58.160Z,17.00
2017-10-05T11:10:26.839Z,17.00
2017-10-05T11:12:55.229Z,16.80
2017-10-05T11:15:22.825Z,16.80
2017-10-05T11:17:50.495Z,16.70
2017-10-05T11:20:18.093Z,16.50
2017-10-05T11:22:45.739Z,16.40
2017-10-05T11:25:13.335Z,16.30
2017-10-05T11:27:41.981Z,16.30
2017-10-05T11:30:09.583Z,16.20
2017-10-05T11:32:37.165Z,16.20
2017-10-05T11:35:04.783Z,16.20
2017-10-05T11:37:33.148Z,16.30
2017-10-05T11:40:00.747Z,16.30
2017-10-05T11:42:28.401Z,16.40
2017-10-05T11:44:57.035Z,16.60
2017-10-05T11:47:24.630Z,16.60
2017-10-05T11:49:52.970Z,16.70
2017-10-05T11:52:20.632Z,16.70
2017-10-05T11:54:48.274Z,16.70
2017-10-05T11:57:15.913Z,16.70
2017-10-05T11:59:43.501Z,16.70
2017-10-05T12:02:11.485Z,16.70
2017-10-05T12:04:39.072Z,16.70
2017-10-05T12:07:07.426Z,16.70
2017-10-05T12:09:35.047Z,16.70
2017-10-05T12:12:02.627Z,16.70
2017-10-05T12:14:30.519Z,16.70
2017-10-05T12:16:58.114Z,16.70
2017-10-05T12:19:26.469Z,16.50
2017-10-05T12:21:54.254Z,16.50
2017-10-05T12:24:21.879Z,16.50
2017-10-05T12:26:49.783Z,16.40
2017-10-05T12:29:17.367Z,16.30
2017-10-05T12:31:45.392Z,16.20
2017-10-05T12:34:12.979Z,16.20
2017-10-05T12:36:40.578Z,16.20
2017-10-05T12:39:08.227Z,16.20
2017-10-05T12:41:35.807Z,16.30
2017-10-05T12:44:03.527Z,16.30
2017-10-05T12:46:31.111Z,16.30
2017-10-05T12:48:58.952Z,16.30
2017-10-05T12:51:26.617Z,16.40
2017-10-05T12:53:54.268Z,16.40
2017-10-05T12:56:21.875Z,16.40
2017-10-05T12:58:49.499Z,16.40
2017-10-05T13:01:17.335Z,16.50
2017-10-05T13:03:44.929Z,16.50
2017-10-05T13:06:12.563Z,16.60
2017-10-05T13:08:40.166Z,16.60
2017-10-05T13:11:07.794Z,16.70
2017-10-05T13:13:36.163Z,16.90
2017-10-05T13:16:04.556Z,16.80
2017-10-05T13:18:32.604Z,16.80
2017-10-05T13:21:01.098Z,16.30
2017-10-05T13:23:28.873Z,16.30
2017-10-05T13:25:56.482Z,16.20
2017-10-05T13:28:24.434Z,16.10
2017-10-05T13:30:52.051Z,16.00
2017-10-05T13:33:20.411Z,15.80
2017-10-05T13:35:48.357Z,15.80
2017-10-05T13:38:15.958Z,15.70
2017-10-05T13:40:44.314Z,15.60
2017-10-05T13:43:11.922Z,15.60
2017-10-05T13:45:39.525Z,15.50
2017-10-05T13:48:07.390Z,15.40
2017-10-05T13:50:34.984Z,15.30
2017-10-05T13:53:03.345Z,15.30
2017-10-05T13:55:31.720Z,15.20
2017-10-05T13:57:59.339Z,15.20
2017-10-05T14:00:26.982Z,15.10
2017-10-05T14:02:54.567Z,15.10
2017-10-05T14:05:22.571Z,15.00
2017-10-05T14:07:50.184Z,14.80
2017-10-05T14:10:17.785Z,14.80
2017-10-05T14:12:45.408Z,14.80
2017-10-05T14:15:12.990Z,14.80
2017-10-05T14:17:40.571Z,14.80
2017-10-05T14:20:08.938Z,14.80
2017-10-05T14:22:36.583Z,14.80
2017-10-05T14:25:04.351Z,14.90
2017-10-05T14:27:32.219Z,14.80
2017-10-05T14:29:59.763Z,14.90
2017-10-05T14:32:27.388Z,14.90
2017-10-05T14:34:55.021Z,14.90
2017-10-05T14:37:22.625Z,14.90
2017-10-05T14:39:50.240Z,14.90
2017-10-05T14:42:17.835Z,14.90
2017-10-05T14:44:45.741Z,14.80
2017-10-05T14:47:13.335Z,14.80
2017-10-05T14:49:41.692Z,14.80
2017-10-05T14:52:09.304Z,14.70
2017-10-05T14:54:36.988Z,14.70
2017-10-05T14:57:04.603Z,14.70
2017-10-05T14:59:32.961Z,14.60
2017-10-05T15:02:01.721Z,14.60
2017-10-05T15:04:29.352Z,14.50
2017-10-05T15:06:56.959Z,14.50
2017-10-05T15:09:24.562Z,14.50
2017-10-05T15:11:52.163Z,14.40
2017-10-05T15:14:19.775Z,14.40
2017-10-05T15:16:47.365Z,14.40
2017-10-05T15:19:15.222Z,14.40
2017-10-05T15:21:42.847Z,14.40
2017-10-05T15:24:11.177Z,14.40
2017-10-05T15:26:38.802Z,14.40
2017-10-05T15:29:06.454Z,14.50
2017-10-05T15:31:34.825Z,14.50
2017-10-05T15:34:03.211Z,14.50
2017-10-05T15:36:31.847Z,14.50
2017-10-05T15:38:59.447Z,14.40
2017-10-05T15:41:27.810Z,14.40
2017-10-05T15:43:55.462Z,14.40
2017-10-05T15:46:23.068Z,14.40
2017-10-05T15:48:50.685Z,14.30
2017-10-05T15:51:18.325Z,14.30
2017-10-05T15:53:46.219Z,14.10
2017-10-05T15:56:13.811Z,13.80
2017-10-05T15:58:41.410Z,13.50
2017-10-05T16:01:09.029Z,13.20
2017-10-05T16:03:36.635Z,13.00
2017-10-05T16:06:04.251Z,12.80
2017-10-05T16:08:31.821Z,12.70
2017-10-05T16:10:59.418Z,12.60
2017-10-05T16:13:27.026Z,12.60
2017-10-05T16:15:54.621Z,12.60
2017-10-05T16:18:22.626Z,12.60
2017-10-05T16:20:50.249Z,12.60
2017-10-05T16:23:17.863Z,12.60
2017-10-05T16:25:46.250Z,12.40
2017-10-05T16:28:13.875Z,12.40
2017-10-05T16:30:41.797Z,12.40
2017-10-05T16:33:09.430Z,12.40
2017-10-05T16:35:37.330Z,12.40
2017-10-05T16:38:04.955Z,12.40
2017-10-05T16:40:33.351Z,12.40
2017-10-05T16:43:01.181Z,12.30
2017-10-05T16:45:29.592Z,12.40
2017-10-05T16:47:58.287Z,12.40
2017-10-05T16:50:25.937Z,12.30
2017-10-05T16:52:53.552Z,12.30
2017-10-05T16:55:21.233Z,12.30
2017-10-05T16:57:49.020Z,12.30
2017-10-05T17:00:17.431Z,12.30
2017-10-05T17:02:45.109Z,12.30
2017-10-05T17:05:12.990Z,12.30
2017-10-05T17:07:40.687Z,12.30
2017-10-05T17:10:09.130Z,12.20
2017-10-05T17:12:36.916Z,12.20
2017-10-05T17:15:05.181Z,12.20
2017-10-05T17:17:33.630Z,12.00
2017-10-05T17:20:01.260Z,12.00
2017-10-05T17:22:29.224Z,11.90
2017-10-05T17:24:57.691Z,11.70
2017-10-05T17:27:26.236Z,11.40
2017-10-05T17:29:53.992Z,11.40
2017-10-05T17:32:21.619Z,11.30
2017-10-05T17:34:49.234Z,11.10
2017-10-05T17:37:16.859Z,11.00
2017-10-05T17:39:44.779Z,10.90
2017-10-05T17:42:13.121Z,10.80
2017-10-05T17:44:40.751Z,10.70
2017-10-05T17:47:08.343Z,10.70
2017-10-05T17:49:35.971Z,10.60
2017-10-05T17:52:03.591Z,10.60
2017-10-05T17:54:31.967Z,10.40
2017-10-05T17:56:59.867Z,10.40
2017-10-05T17:59:27.461Z,10.30
2017-10-05T18:01:55.213Z,10.30
2017-10-05T18:04:22.799Z,10.20
2017-10-05T18:06:50.416Z,10.20
2017-10-05T18:09:18.076Z,10.20
2017-10-05T18:11:45.684Z,10.10
2017-10-05T18:14:13.692Z,10.10
2017-10-05T18:16:42.060Z,10.10
2017-10-05T18:19:10.958Z,10.00
2017-10-05T18:21:39.346Z,9.90
2017-10-05T18:24:07.092Z,9.90
2017-10-05T18:26:35.482Z,9.80
2017-10-05T18:29:03.844Z,9.70
2017-10-05T18:31:31.797Z,9.70
2017-10-05T18:33:59.367Z,9.70
2017-10-05T18:36:26.969Z,9.70
2017-10-05T18:38:55.532Z,9.60
2017-10-05T18:41:23.207Z,9.60
2017-10-05T18:43:50.807Z,9.60
2017-10-05T18:46:18.391Z,9.50
2017-10-05T18:48:46.259Z,9.50
2017-10-05T18:51:13.842Z,9.40
2017-10-05T18:53:41.453Z,9.40
2017-10-05T18:56:09.270Z,9.40
2017-10-05T18:58:36.886Z,9.40
2017-10-05T19:01:04.530Z,9.30
2017-10-05T19:03:32.141Z,9.20
2017-10-05T19:06:01.609Z,9.10
2017-10-05T19:08:29.258Z,9.10
2017-10-05T19:10:56.842Z,9.10
2017-10-05T19:13:24.437Z,9.10
2017-10-05T19:15:52.042Z,9.10
2017-10-05T19:18:20.790Z,9.00
2017-10-05T19:20:49.879Z,9.00
2017-10-05T19:23:19.450Z,8.90
2017-10-05T19:25:47.657Z,8.90
2017-10-05T19:28:15.279Z,8.90
2017-10-05T19:30:43.009Z,8.90
2017-10-05T19:33:10.604Z,8.80
2017-10-05T19:35:38.243Z,8.80
2017-10-05T19:38:05.833Z,8.80
2017-10-05T19:40:33.877Z,8.70
2017-10-05T19:43:01.461Z,8.70
2017-10-05T19:45:29.053Z,8.70
2017-10-05T19:47:56.681Z,8.60
2017-10-05T19:50:24.252Z,8.60
2017-10-05T19:52:52.664Z,8.60
2017-10-05T19:55:20.246Z,8.60
2017-10-05T19:57:48.119Z,8.60
2017-10-05T20:00:15.714Z,8.60
2017-10-05T20:02:44.089Z,8.50
2017-10-05T20:05:12.521Z,8.50
2017-10-05T20:07:40.126Z,8.50
2017-10-05T20:10:07.955Z,8.50
2017-10-05T20:12:35.570Z,8.40
2017-10-05T20:15:10.883Z,8.40
2017-10-05T20:17:39.698Z,8.30
2017-10-05T20:20:14.062Z,8.30
2017-10-05T20:22:47.238Z,8.30
2017-10-05T20:25:20.754Z,8.30
2017-10-05T20:28:03.224Z,8.30
2017-10-05T20:30:37.480Z,8.30
2017-10-05T20:33:09.529Z,8.20
2017-10-05T20:35:37.422Z,8.20
2017-10-05T20:38:05.024Z,8.20
2017-10-05T20:40:33.444Z,8.20
2017-10-05T20:43:01.501Z,8.20
2017-10-05T20:45:29.147Z,8.30
2017-10-05T20:47:57.097Z,8.30
2017-10-05T20:50:25.526Z,8.30
2017-10-05T20:52:53.124Z,8.20
2017-10-05T20:55:21.544Z,8.20
2017-10-05T20:57:49.123Z,8.20
2017-10-05T21:00:17.482Z,8.10
2017-10-05T21:02:45.073Z,8.00
2017-10-05T21:05:13.202Z,8.00
2017-10-05T21:07:40.802Z,7.90
2017-10-05T21:10:08.497Z,7.90
2017-10-05T21:12:36.902Z,7.90
2017-10-05T21:15:04.497Z,7.90
2017-10-05T21:17:32.228Z,7.90
2017-10-05T21:19:59.834Z,7.90
2017-10-05T21:22:27.874Z,7.90
2017-10-05T21:24:55.458Z,8.00
2017-10-05T21:27:23.039Z,7.90
2017-10-05T21:29:51.473Z,8.00
2017-10-05T21:32:19.151Z,7.90
2017-10-05T21:34:46.767Z,8.00
2017-10-05T21:37:15.100Z,7.90
2017-10-05T21:39:43.086Z,7.90
2017-10-05T21:42:11.506Z,7.70
2017-10-05T21:44:39.747Z,7.70
2017-10-05T21:47:08.421Z,7.70
2017-10-05T21:49:37.018Z,7.60
2017-10-05T21:52:05.394Z,7.50
2017-10-05T21:54:33.753Z,7.50
2017-10-05T21:57:01.640Z,7.50
2017-10-05T21:59:30.010Z,7.40
2017-10-05T22:01:57.617Z,7.40
2017-10-05T22:04:25.266Z,7.40
2017-10-05T22:06:52.870Z,7.30
2017-10-05T22:09:20.485Z,7.30
2017-10-05T22:11:53.756Z,7.30
2017-10-05T22:14:22.723Z,7.30
2017-10-05T22:16:50.411Z,7.30
2017-10-05T22:19:18.784Z,7.20
2017-10-05T22:21:47.178Z,7.30
2017-10-05T22:24:14.768Z,7.20
2017-10-05T22:26:42.386Z,7.30
2017-10-05T22:29:10.771Z,7.20
2017-10-05T22:31:39.163Z,7.20
2017-10-05T22:34:06.758Z,7.10
2017-10-05T22:36:34.639Z,7.10
2017-10-05T22:39:02.336Z,7.10
2017-10-05T22:41:29.946Z,7.10
2017-10-05T22:43:57.538Z,7.10
2017-10-05T22:46:25.133Z,7.00
2017-10-05T22:48:52.744Z,7.00
2017-10-05T22:51:20.331Z,6.90
2017-10-05T22:53:48.979Z,6.90
2017-10-05T22:56:16.583Z,6.90
2017-10-05T22:58:45.110Z,6.80
2017-10-05T23:01:12.744Z,6.80
2017-10-05T23:03:40.346Z,6.80
2017-10-05T23:06:07.951Z,6.80
2017-10-05T23:08:36.287Z,6.80
2017-10-05T23:11:03.876Z,6.70
2017-10-05T23:13:32.261Z,6.70
2017-10-05T23:16:00.639Z,6.60
2017-10-05T23:18:29.034Z,6.70
2017-10-05T23:20:56.630Z,6.60
2017-10-05T23:23:24.232Z,6.60
2017-10-05T23:25:51.870Z,6.60
2017-10-05T23:28:19.450Z,6.50
2017-10-05T23:30:48.201Z,6.50
2017-10-05T23:33:15.806Z,6.50
2017-10-05T23:35:44.133Z,6.40
2017-10-05T23:38:11.738Z,6.40
2017-10-05T23:40:40.153Z,6.30
2017-10-05T23:43:07.786Z,6.30
2017-10-05T23:45:36.343Z,6.40
2017-10-05T23:48:04.293Z,6.30
2017-10-05T23:50:31.877Z,6.40
2017-10-05T23:53:00.222Z,6.30
2017-10-05T23:55:27.831Z,6.30
2017-10-05T23:57:56.262Z,6.20
